createdAt,value
2018-08-04T00:00:36.892Z,20.00
2018-08-04T00:03:09.128Z,19.90
2018-08-04T00:05:38.786Z,19.80
2018-08-04T00:08:08.305Z,19.70
2018-08-04T00:10:38.846Z,19.60
2018-08-04T00:13:10.256Z,19.50
2018-08-04T00:15:40.759Z,19.30
2018-08-04T00:18:17.132Z,19.20
2018-08-04T00:20:46.663Z,19.20
2018-08-04T00:23:18.418Z,19.20
2018-08-04T00:25:49.381Z,19.10
2018-08-04T00:28:19.565Z,19.10
2018-08-04T00:30:50.214Z,19.30
2018-08-04T00:33:24.198Z,19.40
2018-08-04T00:35:55.218Z,19.50
2018-08-04T00:38:28.447Z,19.50
2018-08-04T00:41:02.636Z,19.50
2018-08-04T00:43:34.916Z,19.50
2018-08-04T00:46:12.766Z,19.40
2018-08-04T00:48:46.602Z,19.40
2018-08-04T00:51:21.125Z,19.50
2018-08-04T00:53:51.956Z,19.50
2018-08-04T00:56:21.771Z,19.50
2018-08-04T00:58:52.570Z,19.50
2018-08-04T01:01:23.618Z,19.60
2018-08-04T01:03:55.068Z,19.60
2018-08-04T01:06:26.748Z,19.70
2018-08-04T01:08:57.282Z,19.80
2018-08-04T01:11:27.113Z,19.90
2018-08-04T01:14:03.608Z,20.00
2018-08-04T01:16:37.576Z,20.00
2018-08-04T01:19:10.693Z,20.10
2018-08-04T01:21:42.050Z,20.20
2018-08-04T01:24:12.254Z,20.20
2018-08-04T01:26:45.691Z,20.20
2018-08-04T01:29:15.143Z,20.20
2018-08-04T01:31:48.651Z,20.30
2018-08-04T01:34:17.641Z,20.20
2018-08-04T01:36:46.501Z,20.10
2018-08-04T01:39:15.626Z,20.00
2018-08-04T01:41:44.527Z,20.00
2018-08-04T01:44:13.601Z,20.00
2018-08-04T01:46:43.247Z,20.00
2018-08-04T01:49:12.047Z,20.00
2018-08-04T01:51:40.937Z,19.90
2018-08-04T01:54:09.711Z,19.80
2018-08-04T01:56:38.694Z,19.70
2018-08-04T01:59:07.530Z,19.70
2018-08-04T02:01:36.377Z,19.80
2018-08-04T02:04:05.319Z,19.70
2018-08-04T02:06:34.277Z,19.80
2018-08-04T02:09:03.628Z,19.80
2018-08-04T02:11:32.508Z,19.80
2018-08-04T02:14:03.769Z,19.90
2018-08-04T02:16:32.685Z,19.90
2018-08-04T02:19:01.730Z,19.90
2018-08-04T02:21:30.166Z,19.90
2018-08-04T02:23:58.607Z,19.90
2018-08-04T02:26:27.038Z,19.80
2018-08-04T02:28:55.481Z,19.70
2018-08-04T02:31:23.946Z,19.60
2018-08-04T02:33:52.320Z,19.60
2018-08-04T02:36:20.738Z,19.60
2018-08-04T02:38:49.154Z,19.70
2018-08-04T02:41:17.579Z,19.70
2018-08-04T02:43:46.020Z,19.70
2018-08-04T02:46:14.466Z,19.80
2018-08-04T02:48:42.884Z,19.80
2018-08-04T02:51:11.299Z,19.80
2018-08-04T02:53:39.720Z,19.80
2018-08-04T02:56:08.132Z,19.70
2018-08-04T02:58:36.521Z,19.70
2018-08-04T03:01:04.975Z,19.70
2018-08-04T03:03:33.368Z,19.70
2018-08-04T03:06:01.784Z,19.70
2018-08-04T03:08:30.184Z,19.70
2018-08-04T03:10:58.594Z,19.70
2018-08-04T03:13:27.001Z,19.60
2018-08-04T03:15:55.446Z,19.40
2018-08-04T03:18:23.847Z,19.30
2018-08-04T03:20:52.284Z,19.30
2018-08-04T03:23:20.984Z,19.30
2018-08-04T03:25:49.401Z,19.30
2018-08-04T03:28:17.825Z,19.40
2018-08-04T03:30:46.223Z,19.30
2018-08-04T03:33:14.630Z,19.30
2018-08-04T03:35:43.095Z,19.20
2018-08-04T03:38:11.498Z,19.20
2018-08-04T03:40:40.011Z,19.20
2018-08-04T03:43:08.475Z,19.20
2018-08-04T03:45:36.865Z,19.20
2018-08-04T03:48:05.277Z,19.20
2018-08-04T03:50:33.675Z,19.20
2018-08-04T03:53:02.099Z,19.20
2018-08-04T03:55:30.530Z,19.10
2018-08-04T03:57:58.916Z,19.10
2018-08-04T04:00:27.343Z,18.90
2018-08-04T04:02:55.753Z,18.90
2018-08-04T04:05:24.153Z,18.90
2018-08-04T04:07:53.317Z,18.90
2018-08-04T04:10:21.707Z,18.90
2018-08-04T04:12:50.123Z,18.90
2018-08-04T04:15:19.037Z,18.90
2018-08-04T04:17:48.261Z,18.80
2018-08-04T04:20:19.309Z,18.80
2018-08-04T04:22:48.487Z,18.80
2018-08-04T04:25:16.907Z,18.80
2018-08-04T04:27:45.328Z,18.80
2018-08-04T04:30:14.912Z,18.80
2018-08-04T04:32:43.320Z,18.80
2018-08-04T04:35:11.785Z,18.80
2018-08-04T04:37:40.186Z,18.80
2018-08-04T04:40:08.587Z,18.80
2018-08-04T04:42:36.990Z,18.80
2018-08-04T04:45:05.774Z,18.90
2018-08-04T04:47:34.168Z,18.80
2018-08-04T04:50:02.586Z,18.80
2018-08-04T04:52:30.999Z,18.90
2018-08-04T04:54:59.390Z,18.90
2018-08-04T04:57:27.786Z,18.90
2018-08-04T04:59:56.518Z,18.90
2018-08-04T05:02:24.937Z,18.90
2018-08-04T05:04:53.495Z,18.90
2018-08-04T05:07:21.900Z,18.80
2018-08-04T05:09:51.039Z,18.80
2018-08-04T05:12:19.490Z,18.70
2018-08-04T05:14:47.888Z,18.70
2018-08-04T05:17:16.301Z,18.70
2018-08-04T05:19:44.718Z,18.70
2018-08-04T05:22:13.109Z,18.80
2018-08-04T05:24:41.511Z,18.90
2018-08-04T05:27:09.912Z,18.90
2018-08-04T05:29:38.317Z,18.90
2018-08-04T05:32:06.755Z,18.90
2018-08-04T05:34:35.158Z,18.90
2018-08-04T05:37:03.557Z,19.00
2018-08-04T05:39:32.451Z,19.00
2018-08-04T05:42:01.228Z,19.10
2018-08-04T05:44:30.704Z,19.10
2018-08-04T05:46:59.108Z,19.20
2018-08-04T05:49:27.517Z,19.30
2018-08-04T05:51:55.967Z,19.50
2018-08-04T05:54:24.646Z,19.60
2018-08-04T05:56:53.050Z,19.70
2018-08-04T05:59:21.456Z,19.90
2018-08-04T06:01:49.864Z,20.00
2018-08-04T06:04:18.250Z,20.10
2018-08-04T06:06:46.654Z,20.20
2018-08-04T06:09:15.178Z,20.30
2018-08-04T06:11:43.586Z,20.40
2018-08-04T06:14:12.010Z,20.50
2018-08-04T06:16:40.412Z,20.60
2018-08-04T06:19:11.329Z,20.70
2018-08-04T06:21:41.232Z,20.80
2018-08-04T06:24:10.046Z,21.10
2018-08-04T06:26:39.088Z,21.40
2018-08-04T06:29:07.524Z,21.60
2018-08-04T06:31:36.218Z,21.80
2018-08-04T06:34:04.626Z,21.90
2018-08-04T06:36:33.047Z,22.00
2018-08-04T06:39:02.098Z,22.10
2018-08-04T06:41:30.566Z,22.10
2018-08-04T06:43:58.954Z,22.20
2018-08-04T06:46:27.364Z,22.30
2018-08-04T06:48:56.044Z,22.40
2018-08-04T06:51:24.475Z,22.40
2018-08-04T06:53:52.937Z,22.50
2018-08-04T06:56:21.533Z,22.60
2018-08-04T06:58:49.992Z,22.60
2018-08-04T07:01:18.890Z,22.70
2018-08-04T07:03:47.331Z,22.70
2018-08-04T07:06:15.935Z,22.70
2018-08-04T07:08:44.506Z,22.80
2018-08-04T07:11:13.183Z,22.90
2018-08-04T07:13:41.933Z,23.00
2018-08-04T07:16:10.735Z,23.10
2018-08-04T07:18:39.277Z,23.20
2018-08-04T07:21:08.780Z,23.30
2018-08-04T07:23:37.293Z,23.40
2018-08-04T07:26:05.719Z,23.50
2018-08-04T07:28:34.289Z,23.60
2018-08-04T07:31:02.760Z,23.80
2018-08-04T07:33:31.246Z,23.90
2018-08-04T07:36:01.040Z,24.00
2018-08-04T07:38:29.891Z,24.10
2018-08-04T07:40:59.117Z,24.10
2018-08-04T07:43:28.100Z,24.20
2018-08-04T07:45:56.835Z,24.20
2018-08-04T07:48:25.266Z,24.30
2018-08-04T07:50:53.729Z,24.40
2018-08-04T07:53:22.156Z,24.50
2018-08-04T07:55:50.612Z,24.50
2018-08-04T07:58:19.043Z,24.60
2018-08-04T08:00:47.464Z,24.70
2018-08-04T08:03:15.875Z,24.80
2018-08-04T08:05:44.288Z,24.80
2018-08-04T08:08:12.736Z,24.90
2018-08-04T08:10:41.293Z,25.10
2018-08-04T08:13:09.704Z,25.10
2018-08-04T08:15:38.498Z,25.20
2018-08-04T08:18:07.610Z,25.20
2018-08-04T08:20:36.378Z,25.30
2018-08-04T08:23:05.202Z,25.40
2018-08-04T08:25:34.036Z,25.40
2018-08-04T08:28:02.762Z,25.60
2018-08-04T08:30:33.624Z,25.60
2018-08-04T08:33:02.412Z,25.70
2018-08-04T08:35:31.751Z,25.80
2018-08-04T08:38:00.512Z,25.80
2018-08-04T08:40:29.734Z,25.90
2018-08-04T08:45:26.955Z,26.10
2018-08-04T08:47:56.007Z,26.10
2018-08-04T08:50:25.248Z,26.30
2018-08-04T08:52:54.898Z,26.40
2018-08-04T08:55:23.691Z,26.50
2018-08-04T08:57:52.421Z,26.60
2018-08-04T09:00:21.905Z,26.70
2018-08-04T09:02:51.011Z,26.80
2018-08-04T09:05:19.714Z,26.80
2018-08-04T09:07:49.159Z,27.00
2018-08-04T09:10:18.299Z,27.10
2018-08-04T09:12:46.953Z,27.10
2018-08-04T09:15:15.363Z,27.20
2018-08-04T09:17:43.775Z,27.30
2018-08-04T09:20:12.195Z,27.40
2018-08-04T09:22:40.598Z,27.40
2018-08-04T09:25:10.225Z,27.40
2018-08-04T09:27:39.105Z,27.40
2018-08-04T09:30:10.843Z,27.40
2018-08-04T09:32:39.305Z,27.60
2018-08-04T09:35:07.711Z,27.60
2018-08-04T09:37:36.232Z,27.70
2018-08-04T09:40:05.993Z,27.70
2018-08-04T09:42:34.425Z,27.80
2018-08-04T09:45:02.867Z,27.80
2018-08-04T09:47:31.433Z,27.90
2018-08-04T09:49:59.886Z,28.10
2018-08-04T09:52:28.404Z,28.10
2018-08-04T09:54:56.821Z,28.10
2018-08-04T09:57:25.669Z,28.20
2018-08-04T09:59:54.287Z,28.20
2018-08-04T10:02:25.801Z,28.30
2018-08-04T10:04:55.853Z,28.30
2018-08-04T10:07:25.427Z,28.40
2018-08-04T10:09:54.727Z,28.50
2018-08-04T10:12:24.186Z,28.60
2018-08-04T10:14:53.408Z,28.50
2018-08-04T10:17:24.750Z,28.60
2018-08-04T10:19:54.660Z,28.80
2018-08-04T10:22:23.582Z,29.00
2018-08-04T10:24:54.054Z,29.10
2018-08-04T10:27:22.906Z,29.00
2018-08-04T10:29:51.672Z,29.00
2018-08-04T10:32:21.034Z,28.90
2018-08-04T10:34:50.310Z,28.90
2018-08-04T10:37:18.745Z,28.80
2018-08-04T10:39:47.158Z,28.90
2018-08-04T10:42:15.542Z,29.10
2018-08-04T10:44:43.961Z,29.20
2018-08-04T10:47:12.380Z,29.30
2018-08-04T10:49:40.787Z,29.40
2018-08-04T10:52:09.216Z,29.40
2018-08-04T10:54:37.666Z,29.30
2018-08-04T10:57:06.577Z,29.30
2018-08-04T10:59:35.056Z,29.30
2018-08-04T11:02:03.560Z,29.40
2018-08-04T11:04:31.987Z,29.60
2018-08-04T11:07:00.382Z,29.60
2018-08-04T11:09:28.821Z,29.70
2018-08-04T11:11:57.233Z,29.80
2018-08-04T11:14:25.673Z,29.90
2018-08-04T11:16:54.275Z,29.90
2018-08-04T11:19:22.684Z,29.90
2018-08-04T11:21:51.081Z,30.00
2018-08-04T11:24:19.515Z,30.00
2018-08-04T11:26:47.921Z,30.00
2018-08-04T11:29:16.369Z,30.00
2018-08-04T11:31:44.907Z,30.00
2018-08-04T11:34:13.317Z,30.10
2018-08-04T11:36:41.717Z,30.20
2018-08-04T11:39:11.179Z,30.40
2018-08-04T11:41:39.768Z,30.60
2018-08-04T11:44:08.417Z,30.70
2018-08-04T11:46:36.867Z,30.70
2018-08-04T11:49:05.736Z,30.70
2018-08-04T11:51:34.185Z,30.70
2018-08-04T11:54:02.555Z,30.80
2018-08-04T11:56:31.387Z,30.90
2018-08-04T11:58:59.793Z,31.00
2018-08-04T12:01:28.253Z,31.00
2018-08-04T12:03:57.077Z,31.00
2018-08-04T12:06:25.575Z,31.00
2018-08-04T12:08:53.965Z,31.00
2018-08-04T12:11:22.670Z,30.80
2018-08-04T12:13:51.540Z,30.70
2018-08-04T12:16:19.943Z,30.70
2018-08-04T12:18:48.495Z,30.80
2018-08-04T12:21:16.894Z,30.70
2018-08-04T12:23:45.958Z,30.60
2018-08-04T12:26:14.360Z,30.40
2018-08-04T12:28:43.441Z,30.30
2018-08-04T12:31:11.856Z,30.30
2018-08-04T12:33:40.341Z,30.30
2018-08-04T12:36:09.639Z,30.20
2018-08-04T12:38:38.398Z,30.20
2018-08-04T12:41:06.816Z,30.20
2018-08-04T12:43:35.508Z,30.10
2018-08-04T12:46:03.916Z,30.10
2018-08-04T12:48:32.352Z,30.20
2018-08-04T12:51:02.381Z,30.20
2018-08-04T12:53:30.786Z,30.20
2018-08-04T12:56:00.468Z,30.20
2018-08-04T12:58:28.890Z,30.20
2018-08-04T13:00:57.348Z,30.10
2018-08-04T13:03:25.758Z,30.20
2018-08-04T13:05:54.417Z,30.30
2018-08-04T13:08:23.532Z,30.30
2018-08-04T13:10:51.938Z,30.30
2018-08-04T13:13:20.788Z,30.40
2018-08-04T13:15:49.189Z,30.40
2018-08-04T13:18:17.585Z,30.50
2018-08-04T13:20:45.996Z,30.60
2018-08-04T13:23:14.411Z,30.70
2018-08-04T13:25:42.842Z,30.80
2018-08-04T13:28:11.826Z,30.90
2018-08-04T13:30:40.615Z,30.90
2018-08-04T13:33:09.737Z,30.90
2018-08-04T13:35:38.159Z,31.00
2018-08-04T13:38:06.559Z,31.00
2018-08-04T13:40:35.035Z,31.10
2018-08-04T13:43:03.425Z,31.20
2018-08-04T13:45:31.831Z,31.30
2018-08-04T13:48:00.233Z,31.40
2018-08-04T13:50:28.633Z,31.40
2018-08-04T13:52:57.059Z,31.30
2018-08-04T13:55:25.497Z,31.30
2018-08-04T13:57:53.879Z,31.30
2018-08-04T14:00:22.277Z,31.30
2018-08-04T14:02:50.668Z,31.40
2018-08-04T14:05:19.073Z,31.50
2018-08-04T14:07:47.466Z,31.60
2018-08-04T14:11:45.056Z,31.50
2018-08-04T14:14:13.464Z,31.30
2018-08-04T14:16:41.872Z,31.00
2018-08-04T14:19:10.421Z,30.70
2018-08-04T14:21:38.915Z,30.60
2018-08-04T14:24:07.337Z,30.40
2018-08-04T14:26:35.849Z,30.30
2018-08-04T14:29:04.258Z,30.40
2018-08-04T14:31:32.805Z,30.70
2018-08-04T14:34:01.224Z,30.70
2018-08-04T14:36:29.654Z,30.80
2018-08-04T14:38:58.054Z,30.90
2018-08-04T14:41:26.549Z,31.10
2018-08-04T14:43:55.143Z,31.10
2018-08-04T14:46:23.537Z,31.00
2018-08-04T14:48:51.932Z,30.90
2018-08-04T14:51:20.377Z,30.50
2018-08-04T14:53:49.165Z,30.20
2018-08-04T14:56:17.574Z,30.10
2018-08-04T14:58:45.958Z,29.80
2018-08-04T15:01:14.359Z,29.50
2018-08-04T15:03:42.798Z,29.10
2018-08-04T15:06:11.179Z,28.80
2018-08-04T15:08:39.565Z,28.50
2018-08-04T15:11:07.959Z,28.20
2018-08-04T15:13:36.346Z,27.90
2018-08-04T15:16:04.951Z,27.80
2018-08-04T15:18:33.402Z,27.60
2018-08-04T15:21:01.808Z,27.30
2018-08-04T15:23:30.200Z,27.00
2018-08-04T15:25:58.604Z,26.90
2018-08-04T15:28:27.390Z,26.70
2018-08-04T15:30:55.784Z,26.70
2018-08-04T15:33:24.253Z,26.70
2018-08-04T15:35:52.694Z,26.60
2018-08-04T15:38:21.237Z,26.50
2018-08-04T15:40:49.729Z,26.40
2018-08-04T15:43:18.552Z,26.40
2018-08-04T15:48:16.345Z,26.40
2018-08-04T15:50:44.751Z,26.20
2018-08-04T15:53:13.153Z,26.00
2018-08-04T15:55:42.157Z,25.80
2018-08-04T15:58:10.557Z,25.80
2018-08-04T16:00:39.007Z,25.90
2018-08-04T16:03:07.430Z,26.00
2018-08-04T16:08:07.094Z,26.00
2018-08-04T16:10:35.565Z,26.10
2018-08-04T16:13:03.945Z,26.20
2018-08-04T16:15:32.542Z,26.00
2018-08-04T16:18:00.937Z,26.10
2018-08-04T16:20:29.337Z,26.30
2018-08-04T16:22:57.746Z,26.40
2018-08-04T16:25:26.181Z,26.50
2018-08-04T16:27:54.587Z,26.50
2018-08-04T16:30:22.998Z,26.40
2018-08-04T16:32:51.403Z,26.30
2018-08-04T16:35:19.880Z,26.20
2018-08-04T16:37:48.286Z,26.10
2018-08-04T16:40:16.682Z,26.20
2018-08-04T16:42:45.088Z,26.20
2018-08-04T16:45:13.496Z,25.90
2018-08-04T16:47:41.902Z,25.60
2018-08-04T16:50:10.295Z,25.50
2018-08-04T16:52:38.688Z,25.50
2018-08-04T16:55:07.101Z,25.60
2018-08-04T16:57:35.492Z,25.50
2018-08-04T17:00:04.685Z,25.60
2018-08-04T17:02:33.108Z,25.60
2018-08-04T17:05:01.512Z,25.70
2018-08-04T17:07:29.918Z,25.60
2018-08-04T17:09:58.314Z,25.40
2018-08-04T17:12:26.744Z,25.30
2018-08-04T17:14:55.180Z,25.40
2018-08-04T17:17:23.592Z,25.60
2018-08-04T17:19:52.023Z,25.70
2018-08-04T17:22:21.531Z,25.60
2018-08-04T17:24:49.937Z,25.40
2018-08-04T17:27:18.345Z,25.10
2018-08-04T17:29:46.786Z,24.90
2018-08-04T17:32:15.193Z,24.70
2018-08-04T17:34:43.598Z,24.70
2018-08-04T17:37:12.047Z,24.60
2018-08-04T17:39:40.469Z,24.40
2018-08-04T17:42:08.873Z,24.30
2018-08-04T17:44:37.345Z,24.20
2018-08-04T17:47:06.399Z,24.10
2018-08-04T17:49:34.835Z,24.00
2018-08-04T17:52:03.329Z,23.90
2018-08-04T17:54:32.189Z,23.80
2018-08-04T17:57:00.666Z,23.70
2018-08-04T17:59:29.023Z,23.70
2018-08-04T18:01:57.407Z,23.50
2018-08-04T18:04:25.859Z,23.40
2018-08-04T18:06:54.265Z,23.30
2018-08-04T18:09:22.701Z,23.30
2018-08-04T18:11:51.105Z,23.30
2018-08-04T18:14:19.537Z,23.40
2018-08-04T18:16:48.664Z,23.40
2018-08-04T18:19:17.053Z,23.40
2018-08-04T18:21:45.483Z,23.40
2018-08-04T18:24:14.248Z,23.50
2018-08-04T18:26:42.662Z,23.70
2018-08-04T18:29:11.077Z,23.80
2018-08-04T18:31:39.489Z,23.80
2018-08-04T18:34:07.922Z,23.70
2018-08-04T18:36:36.323Z,23.60
2018-08-04T18:39:06.096Z,23.50
2018-08-04T18:41:34.510Z,23.40
2018-08-04T18:44:02.926Z,23.40
2018-08-04T18:46:31.330Z,23.30
2018-08-04T18:48:59.919Z,23.30
2018-08-04T18:51:28.336Z,23.30
2018-08-04T18:53:56.734Z,23.10
2018-08-04T18:56:25.434Z,23.10
2018-08-04T18:58:54.038Z,23.10
2018-08-04T19:01:22.883Z,23.00
2018-08-04T19:03:51.358Z,23.00
2018-08-04T19:06:19.768Z,23.00
2018-08-04T19:08:48.178Z,23.00
2018-08-04T19:11:16.588Z,23.00
2018-08-04T19:13:45.037Z,22.90
2018-08-04T19:16:13.549Z,22.70
2018-08-04T19:18:41.899Z,22.60
2018-08-04T19:21:10.295Z,22.20
2018-08-04T19:23:39.867Z,22.10
2018-08-04T19:26:08.269Z,21.80
2018-08-04T19:28:36.738Z,21.70
2018-08-04T19:31:05.645Z,21.50
2018-08-04T19:33:34.151Z,21.40
2018-08-04T19:36:02.551Z,21.30
2018-08-04T19:38:30.945Z,21.30
2018-08-04T19:40:59.355Z,21.20
2018-08-04T19:43:28.172Z,21.10
2018-08-04T19:46:08.445Z,21.00
2018-08-04T19:48:37.483Z,21.00
2018-08-04T19:51:05.917Z,21.00
2018-08-04T19:53:34.342Z,21.00
2018-08-04T19:56:02.735Z,21.00
2018-08-04T19:58:31.141Z,21.00
2018-08-04T20:00:59.545Z,20.90
2018-08-04T20:03:27.987Z,20.90
2018-08-04T20:05:56.377Z,20.80
2018-08-04T20:08:24.854Z,20.60
2018-08-04T20:10:53.277Z,20.60
2018-08-04T20:13:21.678Z,20.60
2018-08-04T20:15:50.074Z,20.50
2018-08-04T20:18:18.508Z,20.40
2018-08-04T20:20:46.945Z,20.40
2018-08-04T20:23:15.360Z,20.40
2018-08-04T20:25:43.784Z,20.40
2018-08-04T20:28:12.170Z,20.30
2018-08-04T20:30:40.596Z,20.20
2018-08-04T20:33:08.984Z,20.30
2018-08-04T20:35:37.396Z,20.30
2018-08-04T20:38:05.796Z,20.20
2018-08-04T20:40:34.213Z,20.20
2018-08-04T20:43:02.611Z,20.10
2018-08-04T20:45:31.026Z,20.10
2018-08-04T20:47:59.462Z,20.00
2018-08-04T20:50:27.862Z,19.80
2018-08-04T20:52:56.300Z,19.80
2018-08-04T20:55:24.704Z,19.70
2018-08-04T20:57:53.119Z,19.70
2018-08-04T21:00:21.530Z,19.60
2018-08-04T21:02:49.934Z,19.50
2018-08-04T21:05:18.381Z,19.50
2018-08-04T21:07:46.842Z,19.50
2018-08-04T21:10:15.272Z,19.50
2018-08-04T21:12:43.698Z,19.60
2018-08-04T21:15:12.144Z,19.50
2018-08-04T21:17:40.560Z,19.50
2018-08-04T21:20:09.038Z,19.50
2018-08-04T21:22:37.485Z,19.40
2018-08-04T21:25:05.954Z,19.40
2018-08-04T21:27:34.406Z,19.30
2018-08-04T21:30:02.836Z,19.20
2018-08-04T21:32:31.308Z,19.20
2018-08-04T21:34:59.792Z,19.10
2018-08-04T21:37:28.226Z,19.10
2018-08-04T21:39:56.664Z,19.00
2018-08-04T21:42:25.068Z,19.00
2018-08-04T21:44:53.509Z,19.00
2018-08-04T21:47:21.911Z,19.00
2018-08-04T21:49:50.311Z,19.00
2018-08-04T21:52:19.117Z,19.00
2018-08-04T21:54:47.579Z,18.90
2018-08-04T21:57:15.953Z,18.90
2018-08-04T21:59:44.385Z,18.80
2018-08-04T22:02:12.898Z,18.60
2018-08-04T22:04:41.321Z,18.60
2018-08-04T22:07:46.952Z,18.70
2018-08-04T22:12:45.608Z,18.80
2018-08-04T22:15:15.683Z,18.80
2018-08-04T22:17:44.714Z,18.80
2018-08-04T22:20:14.865Z,18.80
2018-08-04T22:22:44.099Z,18.80
2018-08-04T22:25:15.193Z,18.70
2018-08-04T22:27:43.684Z,18.80
2018-08-04T22:30:13.399Z,18.80
2018-08-04T22:35:19.874Z,18.90
2018-08-04T22:37:48.277Z,19.00
2018-08-04T22:40:17.872Z,19.00
2018-08-04T22:42:46.866Z,19.00
2018-08-04T22:45:59.065Z,18.90
2018-08-04T22:48:27.923Z,18.90
2018-08-04T22:50:58.404Z,18.90
2018-08-04T22:53:27.253Z,18.90
2018-08-04T22:55:55.656Z,18.90
2018-08-04T22:58:24.342Z,18.90
2018-08-04T23:00:52.756Z,18.90
2018-08-04T23:03:21.162Z,18.90
2018-08-04T23:05:49.550Z,18.90
2018-08-04T23:08:17.970Z,18.90
2018-08-04T23:10:46.368Z,18.90
2018-08-04T23:13:15.734Z,18.90
2018-08-04T23:15:44.162Z,19.00
2018-08-04T23:18:13.338Z,19.00
2018-08-04T23:20:42.720Z,19.00
2018-08-04T23:23:12.710Z,19.00
2018-08-04T23:25:41.118Z,18.90
2018-08-04T23:28:10.199Z,19.00
2018-08-04T23:30:39.075Z,19.00
2018-08-04T23:33:07.486Z,19.00
2018-08-04T23:35:35.886Z,19.00
2018-08-04T23:38:04.631Z,19.00
2018-08-04T23:40:33.028Z,18.90
2018-08-04T23:43:01.955Z,18.90
2018-08-04T23:45:30.362Z,18.80
2018-08-04T23:47:58.771Z,18.70
2018-08-04T23:50:27.177Z,18.70
2018-08-04T23:52:55.571Z,18.70
2018-08-04T23:55:24.013Z,18.70
2018-08-04T23:57:52.416Z,18.60
